Dearborn, MI (48128)

12:37 AM EDT on September 22, 2014 (GMT -0400)
Dearborn Hills | Change Station
CLOSE
Current Station
Personal Weather Station
Location: Dearborn, MI
Elevation: 636 ft
Nearby Weather Stations

Elev 636 ft 42.31 °N, 83.27 °W | Updated 12 seconds ago

Overcast
Overcast
52.0 °F
Feels Like 52.0 °F
N
0.0
Wind Variable Wind from WNW
Gusts 0.0 mph

Today
High -- | Low -- °F
--% Chance of Precip.
Yesterday
High -- | Low -- °F
Precip. -- in
7:20 AM 7:30 PM
Waning Crescent, 4% visible
Pressure 30.02 in
Visibility 10.0 miles
Clouds Mostly Cloudy 2500 ft
Overcast 3000 ft
Dew Point 20 °F
Humidity 28%
Rainfall 0.00 in
Snow Depth Not available.
UV 0 out of 12
Pollen 1.70 out of 12
Ozone Good
PM2.5 Good
Flu Activity Not available.
METAR KDTW 220353Z 31011KT 10SM BKN025 OVC030 11/07 A3002 RMK AO2 SLP164 T01060067 $

More Conditions Fewer Conditions

Pressure 30.02 in
Visibility 10.0 miles
Clouds Mostly Cloudy 2500 ft
Overcast 3000 ft
Dew Point 20 °F
Humidity 28%
Rainfall 0.00 in
Snow Depth Not available.
UV 0 out of 12
Pollen 1.70 out of 12
Ozone Good
PM2.5 Good
Flu Activity Not available.
METAR KDTW 220353Z 31011KT 10SM BKN025 OVC030 11/07 A3002 RMK AO2 SLP164 T01060067 $

More Conditions Fewer Conditions

10-Day Weather Forecast

Almanac

Astronomy

Sep. 22, 2014 Rise Set
Actual Time 7:20 AM EDT 7:30 PM EDT
Civil Twilight 6:52 AM EDT 7:58 PM EDT
Nautical Twilight 6:19 AM EDT 8:31 PM EDT
Astronomical Twilight 5:45 AM EDT 9:04 PM EDT
Moon 5:46 AM EDT 6:38 PM EDT
Length of Visible Light 13h 05m
Length of Day
12h 09m
Tomorrow will be 2m 50s shorter.
Waning Crescent, 4% of the Moon is Illuminated
Today
Waning Crescent
Sep 24
New
Oct 1
First Quarter
Oct 8
Full
Oct 15
Last Quarter

Today's Extremes

State Highs State Lows

Community

WunderPhotos

Upload Photos

1,755,384 photos uploaded!

Nearby

Air Quality

  Air Quality AQ Index Pollutant
Yesterday Good
PM10
Yesterday Good
OZONE
Current Good
PM2.5
Current Good
OZONE
Sunday Good
OZONE
Sunday Good
PM2.5
Monday Good
OZONE
Monday Good
PM2.5

Snow Depth

Station Depth Elevation
No new snow has been reported.

Earthquake Activity

City Distance Mag. Time & Date
No recent earthquake activity has been reported nearby.
Minimum magnitude displayed is 2.5.

Coastal Water Temperatures

Place Temperature
Marblehead, OH 64.9 °F

Nearby Weather Stations